Time;durP1;ratioP1;P1;durP2;ratioP2;P2;SDS_P1;SDS_P2;PMS_P1;PMS_P2;Temp;Humidity;BMP_temperature;BMP_pressure;BME280_temperature;BME280_humidity;BME280_pressure;Samples;Min_cycle;Max_cycle;Signal;HPM_P1;HPM_P2
2020/12/19 00:00:46;;;;;;;15.33;10.27;;;4.80;99.90;;;;;;5057171;28;20207;-67
2020/12/19 00:03:12;;;;;;;17.03;10.23;;;4.80;99.90;;;;;;5056224;28;20186;-55
2020/12/19 00:05:38;;;;;;;16.10;9.50;;;4.80;99.90;;;;;;5038078;28;20494;-65
2020/12/19 00:08:04;;;;;;;17.13;10.27;;;4.80;99.90;;;;;;5035827;28;20419;-53
2020/12/19 00:10:30;;;;;;;14.63;8.97;;;4.70;99.90;;;;;;5036900;28;20661;-66
2020/12/19 00:12:59;;;;;;;13.33;8.73;;;4.80;99.90;;;;;;5037532;28;20488;-53
2020/12/19 00:15:26;;;;;;;13.83;8.43;;;4.90;99.90;;;;;;5039398;28;20512;-53
2020/12/19 00:17:51;;;;;;;13.93;8.80;;;4.90;99.90;;;;;;5056772;28;20974;-54
2020/12/19 00:20:18;;;;;;;18.97;9.80;;;4.90;99.90;;;;;;5055149;28;20438;-67
2020/12/19 00:22:43;;;;;;;10.90;8.23;;;4.90;99.90;;;;;;5056115;28;20226;-67
2020/12/19 00:25:10;;;;;;;15.27;9.53;;;4.90;99.90;;;;;;5056562;28;20427;-54
2020/12/19 00:27:35;;;;;;;14.20;8.57;;;4.90;99.90;;;;;;5056506;28;20425;-54
2020/12/19 00:30:01;;;;;;;13.47;8.30;;;4.90;99.90;;;;;;5049284;28;20427;-53
2020/12/19 00:32:27;;;;;;;10.90;7.83;;;4.80;99.90;;;;;;5038184;28;20185;-67
2020/12/19 00:34:53;;;;;;;12.90;9.40;;;4.90;99.90;;;;;;5056099;28;20607;-66
2020/12/19 00:37:19;;;;;;;13.27;8.10;;;4.90;99.90;;;;;;5055663;28;20199;-66
2020/12/19 00:39:44;;;;;;;12.97;8.20;;;4.90;99.90;;;;;;5056260;28;20422;-66
2020/12/19 00:42:11;;;;;;;13.10;8.27;;;4.90;99.90;;;;;;5038174;28;20346;-67
2020/12/19 00:44:36;;;;;;;15.23;10.93;;;4.90;99.90;;;;;;5043961;28;20180;-67
2020/12/19 00:47:02;;;;;;;14.03;8.80;;;4.90;99.90;;;;;;5052111;28;20982;-67
2020/12/19 00:49:28;;;;;;;15.10;8.13;;;4.80;99.90;;;;;;5055410;28;20273;-53
2020/12/19 00:51:53;;;;;;;15.47;9.03;;;4.80;99.90;;;;;;5055944;28;20801;-53
2020/12/19 00:54:19;;;;;;;15.10;9.27;;;4.90;99.90;;;;;;5054970;28;20194;-65
2020/12/19 00:56:45;;;;;;;10.77;8.13;;;4.90;99.90;;;;;;5052604;28;20180;-65
2020/12/19 00:59:10;;;;;;;13.27;8.80;;;4.90;99.90;;;;;;5055535;28;20577;-53
2020/12/19 01:01:36;;;;;;;10.40;7.80;;;4.90;99.90;;;;;;5071368;28;20199;-56
2020/12/19 01:04:02;;;;;;;13.83;8.37;;;4.90;99.90;;;;;;5070057;28;20184;-63
2020/12/19 01:06:28;;;;;;;10.63;7.80;;;4.90;99.90;;;;;;5055359;28;20576;-53
2020/12/19 01:08:59;;;;;;;12.47;8.40;;;4.90;99.90;;;;;;5055928;28;20207;-65
2020/12/19 01:11:26;;;;;;;15.40;9.07;;;5.00;99.90;;;;;;5072265;28;20502;-65
2020/12/19 01:13:53;;;;;;;15.20;8.60;;;5.00;99.90;;;;;;5055783;28;20472;-65
2020/12/19 01:16:22;;;;;;;12.03;7.57;;;4.90;99.90;;;;;;5054808;28;20449;-65
2020/12/19 01:18:49;;;;;;;12.20;8.20;;;5.00;99.90;;;;;;5054417;28;20480;-53
2020/12/19 01:21:23;;;;;;;11.67;8.00;;;5.00;99.90;;;;;;5062127;28;20467;-52
2020/12/19 01:23:50;;;;;;;12.60;7.73;;;5.00;99.90;;;;;;5039248;28;20493;-54
2020/12/19 01:26:16;;;;;;;11.53;8.23;;;4.90;99.90;;;;;;5055074;28;20519;-65
2020/12/19 01:28:42;;;;;;;9.77;7.53;;;4.90;99.90;;;;;;5054969;28;20438;-67
2020/12/19 01:31:09;;;;;;;10.77;7.33;;;4.90;99.90;;;;;;5056542;28;20806;-53
2020/12/19 01:33:35;;;;;;;11.93;7.43;;;5.10;99.90;;;;;;5073905;28;20188;-66
2020/12/19 01:36:02;;;;;;;13.90;8.20;;;5.10;99.90;;;;;;5054658;28;20446;-53
2020/12/19 01:38:28;;;;;;;10.90;7.83;;;5.10;99.90;;;;;;5045807;28;20435;-65
2020/12/19 01:40:56;;;;;;;14.17;9.70;;;4.90;99.90;;;;;;5056967;28;20539;-65
2020/12/19 01:43:23;;;;;;;13.53;8.77;;;5.00;99.90;;;;;;5052597;28;20449;-65
2020/12/19 01:45:49;;;;;;;10.40;7.17;;;4.90;99.90;;;;;;5070463;28;20449;-52
2020/12/19 01:48:26;;;;;;;13.67;7.30;;;4.90;99.90;;;;;;5054715;28;20560;-52
2020/12/19 01:50:53;;;;;;;13.00;7.90;;;4.90;99.90;;;;;;5053625;28;20444;-65
2020/12/19 01:53:19;;;;;;;12.30;7.40;;;4.80;99.90;;;;;;5058584;28;20516;-65
2020/12/19 01:55:46;;;;;;;10.30;7.53;;;5.00;99.90;;;;;;5049877;28;20445;-53
2020/12/19 01:58:12;;;;;;;14.00;8.80;;;5.00;99.90;;;;;;5054822;28;20437;-66
2020/12/19 02:00:42;;;;;;;9.53;7.47;;;5.00;99.90;;;;;;5053795;28;20472;-53
2020/12/19 02:03:08;;;;;;;10.27;7.30;;;5.00;99.90;;;;;;5054903;28;20452;-65
2020/12/19 02:05:39;;;;;;;13.43;8.47;;;4.90;99.90;;;;;;5054437;28;20445;-65
2020/12/19 02:08:06;;;;;;;11.70;7.73;;;4.90;99.90;;;;;;5054688;28;20438;-65
2020/12/19 02:10:32;;;;;;;10.50;8.00;;;4.90;99.90;;;;;;5054748;28;20422;-65
2020/12/19 02:12:59;;;;;;;12.10;7.97;;;4.90;99.90;;;;;;5039954;28;20793;-66
2020/12/19 02:15:25;;;;;;;14.30;7.07;;;5.00;99.90;;;;;;5034942;28;20427;-53
2020/12/19 02:17:51;;;;;;;10.00;7.97;;;4.90;99.90;;;;;;5050787;28;20450;-64
2020/12/19 02:20:17;;;;;;;9.70;7.50;;;4.90;99.90;;;;;;5052330;28;20434;-66
2020/12/19 02:22:43;;;;;;;13.80;8.40;;;4.80;99.90;;;;;;5054427;28;20514;-66
2020/12/19 02:25:09;;;;;;;12.13;8.00;;;4.80;99.90;;;;;;5053375;28;20448;-53
2020/12/19 02:27:35;;;;;;;10.10;7.43;;;4.80;99.90;;;;;;5054116;28;20613;-52
2020/12/19 02:30:01;;;;;;;10.60;7.60;;;4.80;99.90;;;;;;5038364;28;20435;-53
2020/12/19 02:32:28;;;;;;;8.70;6.50;;;4.90;99.90;;;;;;5041990;28;20441;-53
2020/12/19 02:34:53;;;;;;;11.40;7.30;;;4.90;99.90;;;;;;5054176;28;20801;-55
2020/12/19 02:37:19;;;;;;;9.60;7.33;;;5.00;99.90;;;;;;5054074;28;20533;-53
2020/12/19 02:39:44;;;;;;;8.90;6.60;;;5.00;99.90;;;;;;5054634;28;20226;-66
2020/12/19 02:42:11;;;;;;;12.20;7.50;;;4.90;99.90;;;;;;5053148;28;20203;-65
2020/12/19 02:44:36;;;;;;;11.30;7.77;;;4.90;99.90;;;;;;5053495;28;20620;-66
2020/12/19 02:47:02;;;;;;;10.70;6.90;;;5.00;99.90;;;;;;5038511;28;20475;-52
2020/12/19 02:49:28;;;;;;;10.60;7.33;;;4.90;99.90;;;;;;5046767;28;20183;-65
2020/12/19 02:51:54;;;;;;;7.13;6.40;;;5.00;99.90;;;;;;5053861;28;20438;-65
2020/12/19 02:54:19;;;;;;;11.93;7.53;;;5.00;99.90;;;;;;5054541;28;20211;-53
2020/12/19 02:56:45;;;;;;;9.63;7.20;;;5.00;99.90;;;;;;5051021;28;20273;-65
2020/12/19 02:59:10;;;;;;;8.73;6.53;;;5.00;99.90;;;;;;5054125;28;20621;-65
2020/12/19 03:01:36;;;;;;;10.63;7.30;;;5.00;99.90;;;;;;5054026;28;20200;-65
2020/12/19 03:04:02;;;;;;;10.77;7.60;;;4.90;99.90;;;;;;5049367;28;20189;-65
2020/12/19 03:06:27;;;;;;;12.00;7.30;;;4.90;99.90;;;;;;5053678;28;20183;-65
2020/12/19 03:08:53;;;;;;;10.60;7.83;;;4.90;99.90;;;;;;5054009;28;20212;-66
2020/12/19 03:11:19;;;;;;;9.10;6.83;;;5.00;99.90;;;;;;5064158;28;20187;-65
2020/12/19 03:13:45;;;;;;;9.30;7.20;;;4.90;99.90;;;;;;5073991;28;20670;-51
2020/12/19 03:16:11;;;;;;;10.30;7.10;;;4.90;99.90;;;;;;5072992;28;20193;-52
2020/12/19 03:18:36;;;;;;;11.40;7.40;;;4.90;99.90;;;;;;5072736;28;20485;-52
2020/12/19 03:21:02;;;;;;;10.10;6.97;;;4.90;99.90;;;;;;5038372;28;20530;-66
2020/12/19 03:23:28;;;;;;;8.43;5.80;;;4.90;99.90;;;;;;5060128;28;20195;-65
2020/12/19 03:25:53;;;;;;;8.67;6.47;;;4.90;99.90;;;;;;5053703;28;20438;-65
2020/12/19 03:28:19;;;;;;;10.13;6.60;;;4.90;99.90;;;;;;5054092;28;20180;-53
2020/12/19 03:30:45;;;;;;;10.30;6.77;;;4.90;99.90;;;;;;5052912;28;20245;-65
2020/12/19 03:33:11;;;;;;;9.70;6.90;;;4.90;99.90;;;;;;5053890;28;20195;-65
2020/12/19 03:35:39;;;;;;;8.67;6.67;;;4.90;99.90;;;;;;5072831;28;20193;-65
2020/12/19 03:38:05;;;;;;;11.33;7.07;;;4.90;99.90;;;;;;5051891;28;20496;-65
2020/12/19 03:40:31;;;;;;;9.60;6.77;;;4.90;99.90;;;;;;5053324;28;20467;-52
2020/12/19 03:42:57;;;;;;;9.87;6.33;;;4.90;99.90;;;;;;5056683;28;20438;-52
2020/12/19 03:45:23;;;;;;;10.43;7.13;;;4.90;99.90;;;;;;5057123;28;20438;-53
2020/12/19 03:47:48;;;;;;;9.63;6.63;;;4.90;99.90;;;;;;5057379;28;20243;-64
2020/12/19 03:50:14;;;;;;;10.83;7.07;;;6.80;99.90;;;;;;5057453;28;20497;-64
2020/12/19 03:52:40;;;;;;;9.60;6.37;;;4.90;99.90;;;;;;5058067;28;20501;-65
2020/12/19 03:55:06;;;;;;;10.23;6.43;;;4.80;99.90;;;;;;5052387;28;20438;-53
2020/12/19 03:57:32;;;;;;;10.33;7.40;;;4.80;99.90;;;;;;5056209;28;20437;-64
2020/12/19 03:59:57;;;;;;;10.93;7.60;;;4.90;99.90;;;;;;5056488;28;20192;-64
2020/12/19 04:02:23;;;;;;;10.70;7.80;;;4.90;99.90;;;;;;5056962;28;20226;-65
2020/12/19 04:04:48;;;;;;;10.20;7.70;;;4.90;99.90;;;;;;5056957;28;20182;-66
2020/12/19 04:07:14;;;;;;;9.47;6.17;;;4.80;99.90;;;;;;5057121;28;20182;-66
2020/12/19 04:09:40;;;;;;;9.23;6.40;;;4.80;99.90;;;;;;5057249;28;20249;-53
2020/12/19 04:12:06;;;;;;;7.77;5.80;;;4.80;99.90;;;;;;5043499;28;20184;-65
2020/12/19 04:14:37;;;;;;;8.00;6.23;;;4.80;99.90;;;;;;5055760;28;20189;-64
2020/12/19 04:17:05;;;;;;;7.07;5.33;;;4.80;99.90;;;;;;5060402;28;20531;-65
2020/12/19 04:19:31;;;;;;;7.87;5.63;;;4.80;99.90;;;;;;5056960;28;20453;-67
2020/12/19 04:21:56;;;;;;;9.40;6.33;;;4.80;99.90;;;;;;5055409;28;20470;-53
2020/12/19 04:24:22;;;;;;;9.23;6.40;;;4.80;99.90;;;;;;5056934;28;20864;-65
2020/12/19 04:26:48;;;;;;;9.13;5.77;;;4.80;99.90;;;;;;5055223;28;20191;-66
2020/12/19 04:29:13;;;;;;;11.27;7.47;;;4.80;99.90;;;;;;5047580;28;20196;-53
2020/12/19 04:31:39;;;;;;;10.03;6.13;;;4.80;99.90;;;;;;5056255;28;20199;-53
2020/12/19 04:34:05;;;;;;;7.40;5.50;;;4.90;99.90;;;;;;5056475;28;20694;-54
2020/12/19 04:36:31;;;;;;;7.57;5.73;;;4.80;99.90;;;;;;5065474;28;20187;-53
2020/12/19 04:38:57;;;;;;;9.13;6.57;;;4.80;99.90;;;;;;5057509;28;20441;-53
2020/12/19 04:41:22;;;;;;;9.07;6.57;;;4.80;99.90;;;;;;5056316;28;20208;-53
2020/12/19 04:43:49;;;;;;;9.07;6.50;;;4.80;99.90;;;;;;5055628;28;20441;-53
2020/12/19 04:46:15;;;;;;;10.00;6.70;;;4.80;99.90;;;;;;5054003;28;20223;-52
2020/12/19 04:48:43;;;;;;;9.00;5.83;;;4.80;99.90;;;;;;5055790;28;20434;-52
2020/12/19 04:51:09;;;;;;;8.00;6.70;;;4.80;99.90;;;;;;5056190;28;20418;-53
2020/12/19 04:53:34;;;;;;;7.07;5.77;;;4.80;99.90;;;;;;5055205;28;20438;-52
2020/12/19 04:56:01;;;;;;;8.67;6.00;;;4.80;99.90;;;;;;5054696;28;20445;-63
2020/12/19 04:58:27;;;;;;;11.63;6.50;;;4.70;99.90;;;;;;5055825;28;20190;-64
2020/12/19 05:00:53;;;;;;;10.13;6.70;;;4.70;99.90;;;;;;5055082;28;20462;-52
2020/12/19 05:03:19;;;;;;;9.30;6.43;;;4.80;99.90;;;;;;5054028;28;20186;-51
2020/12/19 05:05:46;;;;;;;9.17;6.53;;;4.70;99.90;;;;;;5055817;28;20183;-53
2020/12/19 05:08:12;;;;;;;8.60;6.23;;;4.80;99.90;;;;;;5055782;28;20437;-53
2020/12/19 05:10:39;;;;;;;11.17;6.57;;;4.80;99.90;;;;;;5055717;28;20462;-53
2020/12/19 05:13:06;;;;;;;9.90;6.87;;;4.70;99.90;;;;;;5056047;28;20438;-53
2020/12/19 05:15:32;;;;;;;9.27;7.13;;;4.80;99.90;;;;;;5055454;28;20434;-53
2020/12/19 05:18:00;;;;;;;10.10;7.43;;;4.70;99.90;;;;;;5071380;28;20518;-52
2020/12/19 05:20:28;;;;;;;11.83;7.80;;;4.70;99.90;;;;;;5037137;28;20772;-52
2020/12/19 05:22:55;;;;;;;9.13;6.80;;;4.80;99.90;;;;;;5035591;28;20430;-52
2020/12/19 05:25:24;;;;;;;10.17;7.27;;;4.80;99.90;;;;;;5060519;28;20451;-53
2020/12/19 05:27:51;;;;;;;11.07;7.60;;;4.80;99.90;;;;;;5062157;28;20918;-65
2020/12/19 05:30:19;;;;;;;10.00;7.80;;;4.90;99.90;;;;;;5055443;28;20501;-64
2020/12/19 05:32:49;;;;;;;10.53;6.93;;;4.80;99.90;;;;;;5054917;28;20576;-52
2020/12/19 05:35:17;;;;;;;10.60;7.73;;;4.80;99.90;;;;;;5053648;28;20763;-52
2020/12/19 05:37:43;;;;;;;9.73;6.60;;;4.80;99.90;;;;;;5044246;28;20531;-65
2020/12/19 05:40:13;;;;;;;13.67;7.90;;;4.80;99.90;;;;;;5054855;28;20460;-65
2020/12/19 05:42:42;;;;;;;10.43;7.63;;;4.80;99.90;;;;;;5054937;28;20516;-65
2020/12/19 05:45:21;;;;;;;12.90;8.40;;;4.80;99.90;;;;;;5054410;28;20466;-65
2020/12/19 05:47:48;;;;;;;11.80;7.60;;;4.80;99.90;;;;;;5055002;28;20468;-65
2020/12/19 05:50:14;;;;;;;13.83;7.73;;;4.80;99.90;;;;;;5055764;28;20426;-64
2020/12/19 05:52:41;;;;;;;10.33;7.90;;;4.80;99.90;;;;;;5051003;28;20747;-64
2020/12/19 05:55:12;;;;;;;10.37;7.70;;;4.80;99.90;;;;;;5035664;28;20928;-64
2020/12/19 05:57:38;;;;;;;10.43;7.13;;;4.80;99.90;;;;;;5054672;28;20474;-64
2020/12/19 06:00:17;;;;;;;12.30;8.30;;;4.80;99.90;;;;;;5054625;28;20438;-64
2020/12/19 06:02:44;;;;;;;12.30;8.53;;;4.80;99.90;;;;;;5050407;28;20463;-53
2020/12/19 06:05:15;;;;;;;13.43;8.80;;;4.80;99.90;;;;;;5053010;28;20516;-52
2020/12/19 06:07:43;;;;;;;10.07;8.33;;;4.80;99.90;;;;;;5053766;28;20524;-53
2020/12/19 06:10:11;;;;;;;12.10;6.97;;;4.70;99.90;;;;;;5051704;28;20460;-65
2020/12/19 06:12:58;;;;;;;12.97;7.87;;;4.80;99.90;;;;;;5062759;28;20496;-65
2020/12/19 06:15:27;;;;;;;14.67;8.90;;;4.80;99.90;;;;;;5074601;28;20421;-54
2020/12/19 06:18:04;;;;;;;13.70;8.27;;;4.80;99.90;;;;;;5072834;28;20420;-53
2020/12/19 06:20:31;;;;;;;16.70;9.27;;;4.80;99.90;;;;;;5054190;28;20426;-53
2020/12/19 06:22:58;;;;;;;13.23;8.13;;;4.70;99.90;;;;;;5052630;28;20438;-65
2020/12/19 06:25:48;;;;;;;12.80;7.50;;;4.80;99.90;;;;;;5054742;28;20418;-53
2020/12/19 06:28:38;;;;;;;11.83;7.97;;;4.80;99.90;;;;;;5038660;28;20907;-52
2020/12/19 06:31:05;;;;;;;12.00;9.30;;;4.90;99.90;;;;;;5054315;28;20937;-53
2020/12/19 06:33:33;;;;;;;12.60;9.00;;;4.80;99.90;;;;;;5054987;28;20441;-52
2020/12/19 06:36:19;;;;;;;12.63;9.00;;;4.70;99.90;;;;;;5072215;28;20430;-53
2020/12/19 06:38:45;;;;;;;10.70;7.97;;;4.80;99.90;;;;;;5057178;28;20434;-63
2020/12/19 06:41:42;;;;;;;13.83;9.20;;;4.70;99.90;;;;;;5053898;28;20955;-64
2020/12/19 06:44:12;;;;;;;13.87;9.03;;;4.70;99.90;;;;;;5046173;28;20439;-63
2020/12/19 06:46:39;;;;;;;13.27;8.57;;;4.70;99.90;;;;;;5033912;28;20464;-64
2020/12/19 06:49:23;;;;;;;15.90;10.20;;;4.70;99.90;;;;;;5047608;28;20441;-65
2020/12/19 06:52:07;;;;;;;13.70;9.30;;;4.80;99.90;;;;;;5069753;28;20968;-65
2020/12/19 06:54:45;;;;;;;11.03;8.50;;;4.70;99.90;;;;;;5054337;28;20435;-65
2020/12/19 06:57:28;;;;;;;14.23;9.60;;;4.70;99.90;;;;;;5047278;28;20436;-65
2020/12/19 06:59:55;;;;;;;12.33;8.60;;;4.70;99.90;;;;;;5051410;28;20445;-66
2020/12/19 07:02:23;;;;;;;13.90;9.17;;;4.70;99.90;;;;;;5052161;28;20462;-66
2020/12/19 07:04:50;;;;;;;15.67;9.73;;;4.70;99.90;;;;;;5053065;28;20438;-53
2020/12/19 07:07:27;;;;;;;13.70;9.57;;;4.80;99.90;;;;;;5053429;28;20829;-53
2020/12/19 07:09:57;;;;;;;13.23;9.90;;;4.70;99.90;;;;;;5043360;28;20422;-54
2020/12/19 07:12:39;;;;;;;20.37;11.63;;;4.80;99.90;;;;;;5054159;28;20422;-65
2020/12/19 07:15:08;;;;;;;16.43;10.30;;;4.90;99.90;;;;;;5054215;28;20433;-65
2020/12/19 07:17:49;;;;;;;16.63;10.07;;;4.90;99.90;;;;;;5052335;28;20959;-65
2020/12/19 07:20:22;;;;;;;14.10;10.00;;;4.80;99.90;;;;;;5041787;28;20487;-65
2020/12/19 07:22:51;;;;;;;11.43;8.67;;;4.80;99.90;;;;;;5057719;28;20451;-53
2020/12/19 07:25:18;;;;;;;14.27;9.30;;;4.80;99.90;;;;;;5056501;28;20483;-53
2020/12/19 07:27:43;;;;;;;13.40;8.83;;;4.80;99.90;;;;;;5057660;28;20414;-53
2020/12/19 07:30:09;;;;;;;12.80;8.43;;;4.80;99.90;;;;;;5057411;28;20433;-53
2020/12/19 07:32:35;;;;;;;14.90;9.20;;;4.80;99.90;;;;;;5057518;28;20183;-53
2020/12/19 07:35:00;;;;;;;13.20;9.53;;;4.80;99.90;;;;;;5057460;28;20180;-66
2020/12/19 07:37:26;;;;;;;13.80;9.27;;;4.90;99.90;;;;;;5056468;28;20704;-53
2020/12/19 07:40:06;;;;;;;12.37;8.90;;;4.90;99.90;;;;;;5057706;28;20188;-66
2020/12/19 07:42:32;;;;;;;12.07;8.57;;;4.90;99.90;;;;;;5057592;28;20457;-65
2020/12/19 07:44:58;;;;;;;19.40;8.63;;;4.90;99.90;;;;;;5054105;28;20445;-52
2020/12/19 07:47:23;;;;;;;13.30;8.47;;;4.90;99.90;;;;;;5044796;28;20294;-64
2020/12/19 07:49:51;;;;;;;14.10;8.30;;;4.90;99.90;;;;;;5047745;28;20957;-64
2020/12/19 07:52:22;;;;;;;9.40;7.27;;;4.90;99.90;;;;;;5054645;28;20211;-53
2020/12/19 07:55:02;;;;;;;12.70;9.20;;;4.90;99.90;;;;;;5038048;28;20422;-53
2020/12/19 07:57:32;;;;;;;16.03;9.10;;;4.90;99.90;;;;;;5054160;28;20442;-53
2020/12/19 07:59:59;;;;;;;15.43;10.10;;;5.00;99.90;;;;;;5052658;28;20469;-54
2020/12/19 08:02:26;;;;;;;13.50;8.70;;;4.90;99.90;;;;;;5057051;28;20463;-55
2020/12/19 08:04:56;;;;;;;17.73;9.60;;;5.00;99.90;;;;;;5056624;28;20968;-60
2020/12/19 08:07:27;;;;;;;13.63;8.77;;;5.00;99.90;;;;;;5057282;28;20411;-61
2020/12/19 08:10:04;;;;;;;11.77;7.70;;;5.10;99.90;;;;;;5056065;28;20431;-61
2020/12/19 08:12:31;;;;;;;15.83;9.40;;;5.20;99.90;;;;;;5057062;28;20874;-55
2020/12/19 08:15:01;;;;;;;13.03;9.67;;;5.30;99.90;;;;;;5056307;28;20530;-53
2020/12/19 08:17:27;;;;;;;13.40;8.33;;;5.40;99.90;;;;;;5055970;28;20965;-53
2020/12/19 08:19:56;;;;;;;14.97;9.10;;;5.40;99.90;;;;;;5056063;28;20431;-54
2020/12/19 08:22:22;;;;;;;14.03;9.23;;;5.30;99.90;;;;;;5057716;28;20466;-61
2020/12/19 08:24:49;;;;;;;14.30;9.67;;;5.30;99.90;;;;;;5057260;28;20461;-55
2020/12/19 08:27:29;;;;;;;16.30;10.17;;;5.30;99.90;;;;;;5056500;28;20183;-55
2020/12/19 08:30:10;;;;;;;11.87;8.60;;;5.20;99.90;;;;;;5056156;28;20900;-62
2020/12/19 08:32:42;;;;;;;16.23;9.33;;;5.30;99.90;;;;;;5056482;28;20414;-62
2020/12/19 08:35:08;;;;;;;16.10;10.57;;;5.40;99.90;;;;;;5056551;28;20862;-62
2020/12/19 08:37:34;;;;;;;12.37;9.60;;;5.30;99.90;;;;;;5056405;28;20450;-54
2020/12/19 08:40:07;;;;;;;15.00;8.77;;;5.30;99.90;;;;;;5054959;28;20447;-54
2020/12/19 08:42:34;;;;;;;16.40;11.20;;;5.40;99.90;;;;;;5055197;28;20469;-55
2020/12/19 08:45:27;;;;;;;19.27;11.00;;;5.40;99.90;;;;;;5055347;28;20433;-62
2020/12/19 08:47:58;;;;;;;18.77;11.50;;;5.40;99.90;;;;;;5055011;28;20548;-54
2020/12/19 08:50:31;;;;;;;12.97;8.97;;;5.40;99.90;;;;;;5056506;28;20748;-62
2020/12/19 08:53:04;;;;;;;15.63;10.20;;;5.50;99.90;;;;;;5055818;28;20896;-55
2020/12/19 08:55:29;;;;;;;16.97;11.00;;;5.50;99.90;;;;;;5055672;28;20438;-55
2020/12/19 08:57:55;;;;;;;15.40;9.87;;;5.50;99.90;;;;;;5055501;28;20430;-63
2020/12/19 09:00:21;;;;;;;14.97;9.57;;;5.50;99.90;;;;;;5055945;28;20683;-55
2020/12/19 09:02:49;;;;;;;13.03;9.87;;;5.60;99.90;;;;;;5054950;28;20219;-54
2020/12/19 09:05:14;;;;;;;12.63;9.60;;;5.70;99.90;;;;;;5054803;28;20177;-62
2020/12/19 09:07:40;;;;;;;14.67;9.10;;;5.70;99.90;;;;;;5055902;28;20425;-54
2020/12/19 09:10:21;;;;;;;18.37;11.27;;;5.70;99.90;;;;;;5056024;28;20191;-53
2020/12/19 09:12:47;;;;;;;18.53;11.70;;;5.70;99.90;;;;;;5056059;28;20215;-53
2020/12/19 09:15:19;;;;;;;15.90;10.43;;;5.70;99.90;;;;;;5055732;28;20427;-61
2020/12/19 09:17:44;;;;;;;15.97;10.33;;;5.80;99.90;;;;;;5070477;28;20278;-54
2020/12/19 09:20:10;;;;;;;15.70;10.40;;;5.70;99.90;;;;;;5054817;28;20526;-55
2020/12/19 09:22:36;;;;;;;16.13;10.27;;;5.80;99.90;;;;;;5054925;28;20208;-61
2020/12/19 09:25:02;;;;;;;14.73;9.53;;;5.90;99.90;;;;;;5054841;28;20990;-55
2020/12/19 09:27:27;;;;;;;16.80;11.30;;;5.90;99.90;;;;;;5055127;28;20203;-54
2020/12/19 09:29:53;;;;;;;12.67;9.57;;;5.90;99.90;;;;;;5055079;28;20517;-53
2020/12/19 09:32:18;;;;;;;16.50;10.57;;;6.00;99.90;;;;;;5054962;28;20545;-53
2020/12/19 09:34:44;;;;;;;13.57;10.23;;;6.00;99.90;;;;;;5055282;28;20318;-60
2020/12/19 09:37:10;;;;;;;14.67;9.80;;;6.00;99.90;;;;;;5055206;28;20609;-54
2020/12/19 09:39:35;;;;;;;15.10;10.07;;;6.10;99.90;;;;;;5054717;28;20191;-60
2020/12/19 09:42:01;;;;;;;20.90;11.70;;;6.20;99.90;;;;;;5054771;28;20199;-59
2020/12/19 09:44:26;;;;;;;12.93;10.07;;;6.20;99.90;;;;;;5054871;28;20193;-54
2020/12/19 09:46:52;;;;;;;18.80;12.90;;;6.30;99.90;;;;;;5054667;28;20222;-60
2020/12/19 09:49:18;;;;;;;17.93;11.80;;;6.40;99.90;;;;;;5054441;28;20699;-60
2020/12/19 09:51:43;;;;;;;17.43;10.77;;;6.30;99.90;;;;;;5053561;28;20212;-55
2020/12/19 09:54:09;;;;;;;17.30;10.73;;;6.30;99.90;;;;;;5053169;28;20185;-53
2020/12/19 09:56:38;;;;;;;15.43;9.70;;;6.40;99.90;;;;;;5055224;28;20663;-60
2020/12/19 09:59:05;;;;;;;16.83;11.23;;;6.40;99.90;;;;;;5054923;28;20196;-59
2020/12/19 10:01:30;;;;;;;13.47;10.10;;;6.30;99.90;;;;;;5054595;28;20776;-59
2020/12/19 10:03:56;;;;;;;16.27;11.67;;;6.30;99.90;;;;;;5054726;28;20418;-60
2020/12/19 10:06:22;;;;;;;16.00;10.60;;;6.40;99.90;;;;;;5054407;28;20431;-54
2020/12/19 10:08:48;;;;;;;14.07;10.10;;;6.50;99.90;;;;;;5054237;28;20899;-54
2020/12/19 10:11:13;;;;;;;14.67;9.90;;;6.50;99.90;;;;;;5054468;28;20313;-61
2020/12/19 10:13:39;;;;;;;17.60;10.83;;;6.50;99.90;;;;;;5055024;28;20474;-53
2020/12/19 10:16:05;;;;;;;17.13;12.47;;;6.60;99.90;;;;;;5054850;28;20184;-54
2020/12/19 10:18:31;;;;;;;15.90;10.47;;;6.60;99.90;;;;;;5054581;28;20199;-60
2020/12/19 10:20:57;;;;;;;15.10;10.07;;;6.60;99.90;;;;;;5065964;28;20466;-59
2020/12/19 10:23:23;;;;;;;16.27;11.80;;;6.60;99.90;;;;;;5053994;28;20183;-53
2020/12/19 10:25:49;;;;;;;14.63;9.73;;;6.60;99.90;;;;;;5053763;28;20428;-53
2020/12/19 10:28:15;;;;;;;15.43;10.30;;;6.60;99.90;;;;;;5054356;28;20430;-53
2020/12/19 10:30:41;;;;;;;14.47;9.40;;;6.50;99.90;;;;;;5052514;28;20438;-60
2020/12/19 10:33:06;;;;;;;13.70;10.10;;;6.60;99.90;;;;;;5054132;28;20418;-59
2020/12/19 10:35:32;;;;;;;15.33;10.83;;;6.60;99.90;;;;;;5052495;28;20214;-53
2020/12/19 10:37:58;;;;;;;13.60;10.03;;;6.70;99.90;;;;;;5053525;28;20564;-54
2020/12/19 10:40:23;;;;;;;14.13;10.00;;;6.70;99.90;;;;;;5053619;28;20168;-53
2020/12/19 10:42:49;;;;;;;13.80;10.53;;;6.90;99.90;;;;;;5036176;28;20653;-53
2020/12/19 10:45:23;;;;;;;12.17;9.40;;;6.80;99.90;;;;;;5060931;28;20190;-55
2020/12/19 10:47:49;;;;;;;15.80;11.27;;;6.80;99.90;;;;;;5039340;28;20898;-61
2020/12/19 10:50:18;;;;;;;13.60;10.70;;;6.80;99.90;;;;;;5048469;28;20443;-61
2020/12/19 10:52:46;;;;;;;12.97;10.70;;;6.80;99.90;;;;;;5052892;28;20430;-60
2020/12/19 10:55:13;;;;;;;12.97;9.30;;;6.70;99.90;;;;;;5049768;28;20438;-60
2020/12/19 10:57:39;;;;;;;14.50;11.63;;;6.70;99.90;;;;;;5045131;28;20897;-61
2020/12/19 11:00:06;;;;;;;13.60;10.53;;;6.80;99.90;;;;;;5033971;28;20430;-60
2020/12/19 11:02:32;;;;;;;17.50;11.60;;;6.80;99.90;;;;;;5051378;28;20519;-60
2020/12/19 11:04:58;;;;;;;15.70;10.97;;;6.90;99.90;;;;;;5035437;28;20916;-60
2020/12/19 11:07:24;;;;;;;16.13;11.73;;;6.80;99.90;;;;;;5043436;28;20976;-62
2020/12/19 11:09:50;;;;;;;15.67;10.17;;;6.90;99.90;;;;;;5045003;28;20439;-60
2020/12/19 11:12:16;;;;;;;14.50;11.00;;;7.00;99.90;;;;;;5048577;28;20447;-60
2020/12/19 11:14:42;;;;;;;16.33;11.10;;;7.10;99.90;;;;;;5042223;28;20439;-61
2020/12/19 11:17:08;;;;;;;14.17;11.00;;;7.10;99.90;;;;;;5039206;28;20184;-60
2020/12/19 11:19:34;;;;;;;13.47;9.90;;;7.10;99.90;;;;;;5035981;28;20639;-61
2020/12/19 11:22:00;;;;;;;12.00;10.10;;;7.10;99.90;;;;;;5046097;28;20458;-61
2020/12/19 11:24:26;;;;;;;12.00;10.10;;;7.10;99.90;;;;;;5053119;28;20741;-60
2020/12/19 11:26:51;;;;;;;12.50;10.10;;;7.10;99.90;;;;;;5045274;28;20242;-55
2020/12/19 11:29:17;;;;;;;10.97;9.20;;;7.10;99.90;;;;;;5051987;28;20438;-61
2020/12/19 11:31:43;;;;;;;10.73;8.53;;;7.20;99.90;;;;;;5053458;28;20640;-63
2020/12/19 11:34:10;;;;;;;13.90;11.30;;;7.10;99.90;;;;;;5053619;28;20727;-60
2020/12/19 11:36:38;;;;;;;11.77;8.67;;;7.10;99.90;;;;;;5053877;28;20195;-61
2020/12/19 11:39:05;;;;;;;12.50;9.10;;;7.00;99.90;;;;;;5053498;28;20464;-56
2020/12/19 11:41:31;;;;;;;13.10;9.90;;;7.00;99.90;;;;;;5053425;28;20458;-60
2020/12/19 11:43:56;;;;;;;14.83;10.57;;;6.90;99.90;;;;;;5053080;28;20537;-56
2020/12/19 11:46:22;;;;;;;14.30;9.90;;;6.90;99.90;;;;;;5053298;28;20215;-60
2020/12/19 11:48:48;;;;;;;13.83;9.80;;;7.10;99.90;;;;;;5053046;28;20554;-55
2020/12/19 11:51:13;;;;;;;11.40;9.20;;;7.10;99.90;;;;;;5053333;28;20206;-65
2020/12/19 11:53:39;;;;;;;11.00;9.07;;;7.20;99.90;;;;;;5053288;28;20192;-62
2020/12/19 11:56:05;;;;;;;13.73;8.73;;;7.10;99.90;;;;;;5052519;28;20182;-56
2020/12/19 11:58:31;;;;;;;10.50;9.03;;;7.10;99.90;;;;;;5053356;28;20299;-62
2020/12/19 12:00:57;;;;;;;11.70;9.00;;;7.00;99.90;;;;;;5051932;28;20196;-62
2020/12/19 12:03:23;;;;;;;9.87;7.73;;;7.10;99.20;;;;;;5045213;28;20465;-62
2020/12/19 12:05:49;;;;;;;8.40;6.83;;;7.10;96.60;;;;;;5056432;28;20641;-56
2020/12/19 12:08:14;;;;;;;9.10;8.20;;;7.10;94.00;;;;;;5057118;28;20605;-57
2020/12/19 12:10:41;;;;;;;13.13;7.70;;;7.20;91.50;;;;;;5056857;28;20188;-62
2020/12/19 12:13:07;;;;;;;8.90;7.50;;;7.20;88.60;;;;;;5056016;28;20176;-57
2020/12/19 12:15:32;;;;;;;8.73;7.43;;;7.30;74.90;;;;;;5055811;28;20440;-57
2020/12/19 12:17:58;;;;;;;7.80;6.80;;;7.30;54.30;;;;;;5062206;28;20188;-62
2020/12/19 12:20:24;;;;;;;8.63;7.20;;;7.30;51.20;;;;;;5050097;28;20596;-57
2020/12/19 12:22:50;;;;;;;7.70;6.40;;;7.20;55.80;;;;;;5045867;28;20216;-58
2020/12/19 12:25:16;;;;;;;8.43;7.57;;;7.20;52.30;;;;;;5044739;28;20496;-57
2020/12/19 12:27:42;;;;;;;11.47;7.90;;;7.30;46.30;;;;;;5053831;28;20612;-57
2020/12/19 12:30:08;;;;;;;9.93;7.40;;;7.20;47.40;;;;;;5049041;28;20517;-56
2020/12/19 12:32:34;;;;;;;10.33;7.10;;;7.30;46.20;;;;;;5056488;28;20434;-57
2020/12/19 12:35:00;;;;;;;8.80;7.37;;;7.40;42.00;;;;;;5061227;28;20437;-57
2020/12/19 12:37:25;;;;;;;10.57;7.90;;;7.40;35.80;;;;;;5060736;28;20586;-58
2020/12/19 12:39:51;;;;;;;10.87;8.03;;;7.20;39.00;;;;;;5052015;28;20188;-57
2020/12/19 12:42:21;;;;;;;9.70;7.07;;;7.30;37.40;;;;;;5047853;28;20632;-56
2020/12/19 12:44:47;;;;;;;9.97;7.13;;;7.30;38.10;;;;;;5055675;28;20179;-57
2020/12/19 12:47:12;;;;;;;8.87;7.90;;;7.30;38.80;;;;;;5055755;28;20467;-61